sensor_id;sensor_type;location;lat;lon;timestamp;P1;durP1;ratioP1;P2;durP2;ratioP2
22223;SDS011;11281;52.194;21.006;2023-03-23T00:03:55;34.58;;;16.42;;
22223;SDS011;11281;52.194;21.006;2023-03-23T00:08:21;34.40;;;17.33;;
22223;SDS011;11281;52.194;21.006;2023-03-23T00:12:42;34.67;;;15.85;;
22223;SDS011;11281;52.194;21.006;2023-03-23T00:17:07;33.65;;;16.02;;
22223;SDS011;11281;52.194;21.006;2023-03-23T00:25:59;33.35;;;16.38;;
22223;SDS011;11281;52.194;21.006;2023-03-23T00:30:21;31.73;;;16.23;;
22223;SDS011;11281;52.194;21.006;2023-03-23T00:34:43;33.58;;;16.50;;
22223;SDS011;11281;52.194;21.006;2023-03-23T00:39:06;29.45;;;16.58;;
22223;SDS011;11281;52.194;21.006;2023-03-23T00:43:29;32.38;;;16.15;;
22223;SDS011;11281;52.194;21.006;2023-03-23T00:47:51;37.53;;;17.30;;
22223;SDS011;11281;52.194;21.006;2023-03-23T00:52:13;32.03;;;17.00;;
22223;SDS011;11281;52.194;21.006;2023-03-23T00:56:35;32.67;;;17.48;;
22223;SDS011;11281;52.194;21.006;2023-03-23T01:00:58;34.28;;;17.45;;
22223;SDS011;11281;52.194;21.006;2023-03-23T01:05:20;42.20;;;16.92;;
22223;SDS011;11281;52.194;21.006;2023-03-23T01:09:42;39.97;;;17.33;;
22223;SDS011;11281;52.194;21.006;2023-03-23T01:14:05;40.88;;;18.55;;
22223;SDS011;11281;52.194;21.006;2023-03-23T01:18:27;36.60;;;17.23;;
22223;SDS011;11281;52.194;21.006;2023-03-23T01:22:48;35.53;;;16.88;;
22223;SDS011;11281;52.194;21.006;2023-03-23T01:27:11;29.05;;;15.90;;
22223;SDS011;11281;52.194;21.006;2023-03-23T01:31:32;33.13;;;16.55;;
22223;SDS011;11281;52.194;21.006;2023-03-23T01:35:55;38.03;;;16.70;;
22223;SDS011;11281;52.194;21.006;2023-03-23T01:40:17;33.63;;;15.75;;
22223;SDS011;11281;52.194;21.006;2023-03-23T01:49:02;32.10;;;16.17;;
22223;SDS011;11281;52.194;21.006;2023-03-23T01:53:30;34.05;;;17.25;;
22223;SDS011;11281;52.194;21.006;2023-03-23T01:57:58;30.42;;;14.85;;
22223;SDS011;11281;52.194;21.006;2023-03-23T02:02:22;32.95;;;15.75;;
22223;SDS011;11281;52.194;21.006;2023-03-23T02:06:45;30.02;;;14.95;;
22223;SDS011;11281;52.194;21.006;2023-03-23T02:11:12;32.80;;;16.92;;
22223;SDS011;11281;52.194;21.006;2023-03-23T02:40:19;29.48;;;15.48;;
22223;SDS011;11281;52.194;21.006;2023-03-23T02:44:47;34.08;;;15.63;;
22223;SDS011;11281;52.194;21.006;2023-03-23T02:49:11;31.75;;;15.75;;
22223;SDS011;11281;52.194;21.006;2023-03-23T02:53:36;37.38;;;16.50;;
22223;SDS011;11281;52.194;21.006;2023-03-23T02:58:01;32.40;;;16.17;;
22223;SDS011;11281;52.194;21.006;2023-03-23T03:02:25;25.52;;;15.25;;
22223;SDS011;11281;52.194;21.006;2023-03-23T03:11:36;28.10;;;15.07;;
22223;SDS011;11281;52.194;21.006;2023-03-23T03:20:36;32.50;;;15.63;;
22223;SDS011;11281;52.194;21.006;2023-03-23T03:25:04;22.27;;;12.52;;
22223;SDS011;11281;52.194;21.006;2023-03-23T03:29:35;23.20;;;13.57;;
22223;SDS011;11281;52.194;21.006;2023-03-23T03:34:02;26.13;;;12.93;;
22223;SDS011;11281;52.194;21.006;2023-03-23T03:38:24;28.25;;;14.45;;
22223;SDS011;11281;52.194;21.006;2023-03-23T03:42:46;28.17;;;14.25;;
22223;SDS011;11281;52.194;21.006;2023-03-23T03:47:08;25.92;;;13.60;;
22223;SDS011;11281;52.194;21.006;2023-03-23T03:51:30;24.45;;;14.10;;
22223;SDS011;11281;52.194;21.006;2023-03-23T03:55:52;25.27;;;12.63;;
22223;SDS011;11281;52.194;21.006;2023-03-23T04:00:20;24.50;;;14.07;;
22223;SDS011;11281;52.194;21.006;2023-03-23T04:04:43;26.52;;;13.43;;
22223;SDS011;11281;52.194;21.006;2023-03-23T04:09:05;25.55;;;13.38;;
22223;SDS011;11281;52.194;21.006;2023-03-23T04:13:27;25.42;;;13.05;;
22223;SDS011;11281;52.194;21.006;2023-03-23T04:17:49;24.70;;;13.40;;
22223;SDS011;11281;52.194;21.006;2023-03-23T04:22:11;24.13;;;12.35;;
22223;SDS011;11281;52.194;21.006;2023-03-23T04:26:32;22.48;;;13.57;;
22223;SDS011;11281;52.194;21.006;2023-03-23T04:30:55;25.52;;;14.95;;
22223;SDS011;11281;52.194;21.006;2023-03-23T04:35:18;25.13;;;14.48;;
22223;SDS011;11281;52.194;21.006;2023-03-23T04:39:41;27.33;;;13.95;;
22223;SDS011;11281;52.194;21.006;2023-03-23T04:44:06;24.02;;;14.00;;
22223;SDS011;11281;52.194;21.006;2023-03-23T04:48:29;24.35;;;13.02;;
22223;SDS011;11281;52.194;21.006;2023-03-23T04:52:53;27.08;;;14.30;;
22223;SDS011;11281;52.194;21.006;2023-03-23T04:57:18;26.00;;;13.63;;
22223;SDS011;11281;52.194;21.006;2023-03-23T05:01:40;25.45;;;13.07;;
22223;SDS011;11281;52.194;21.006;2023-03-23T05:06:06;26.42;;;13.50;;
22223;SDS011;11281;52.194;21.006;2023-03-23T05:10:28;27.05;;;15.10;;
22223;SDS011;11281;52.194;21.006;2023-03-23T05:14:50;23.35;;;13.70;;
22223;SDS011;11281;52.194;21.006;2023-03-23T05:19:11;23.73;;;13.23;;
22223;SDS011;11281;52.194;21.006;2023-03-23T05:23:33;22.60;;;12.95;;
22223;SDS011;11281;52.194;21.006;2023-03-23T05:27:56;28.13;;;14.45;;
22223;SDS011;11281;52.194;21.006;2023-03-23T05:32:19;25.75;;;13.10;;
22223;SDS011;11281;52.194;21.006;2023-03-23T05:36:41;27.45;;;13.82;;
22223;SDS011;11281;52.194;21.006;2023-03-23T05:41:04;28.13;;;13.77;;
22223;SDS011;11281;52.194;21.006;2023-03-23T05:45:27;22.08;;;13.20;;
22223;SDS011;11281;52.194;21.006;2023-03-23T05:49:49;23.35;;;12.48;;
22223;SDS011;11281;52.194;21.006;2023-03-23T05:54:10;23.30;;;12.90;;
22223;SDS011;11281;52.194;21.006;2023-03-23T05:58:34;23.45;;;12.88;;
22223;SDS011;11281;52.194;21.006;2023-03-23T06:02:56;26.63;;;12.88;;
22223;SDS011;11281;52.194;21.006;2023-03-23T06:07:18;21.52;;;13.27;;
22223;SDS011;11281;52.194;21.006;2023-03-23T06:11:40;26.90;;;12.48;;
22223;SDS011;11281;52.194;21.006;2023-03-23T06:16:01;21.02;;;12.18;;
22223;SDS011;11281;52.194;21.006;2023-03-23T06:20:24;20.02;;;12.23;;
22223;SDS011;11281;52.194;21.006;2023-03-23T06:24:46;21.63;;;11.45;;
22223;SDS011;11281;52.194;21.006;2023-03-23T06:29:10;18.55;;;10.45;;
22223;SDS011;11281;52.194;21.006;2023-03-23T06:33:35;20.00;;;10.63;;
22223;SDS011;11281;52.194;21.006;2023-03-23T06:37:58;18.65;;;10.10;;
22223;SDS011;11281;52.194;21.006;2023-03-23T06:42:22;17.83;;;10.20;;
22223;SDS011;11281;52.194;21.006;2023-03-23T06:46:47;25.27;;;10.82;;
22223;SDS011;11281;52.194;21.006;2023-03-23T06:51:09;19.08;;;10.32;;
22223;SDS011;11281;52.194;21.006;2023-03-23T06:55:31;17.20;;;10.93;;
22223;SDS011;11281;52.194;21.006;2023-03-23T06:59:52;22.50;;;9.50;;
22223;SDS011;11281;52.194;21.006;2023-03-23T07:04:14;18.75;;;10.90;;
22223;SDS011;11281;52.194;21.006;2023-03-23T07:08:37;17.98;;;9.38;;
22223;SDS011;11281;52.194;21.006;2023-03-23T07:12:59;17.27;;;9.32;;
22223;SDS011;11281;52.194;21.006;2023-03-23T07:17:21;16.05;;;8.45;;
22223;SDS011;11281;52.194;21.006;2023-03-23T07:21:43;13.55;;;8.35;;
22223;SDS011;11281;52.194;21.006;2023-03-23T07:26:04;14.93;;;8.35;;
22223;SDS011;11281;52.194;21.006;2023-03-23T07:30:27;14.05;;;8.30;;
22223;SDS011;11281;52.194;21.006;2023-03-23T07:34:50;16.90;;;8.60;;
22223;SDS011;11281;52.194;21.006;2023-03-23T07:39:13;12.70;;;7.57;;
22223;SDS011;11281;52.194;21.006;2023-03-23T07:43:35;11.18;;;7.55;;
22223;SDS011;11281;52.194;21.006;2023-03-23T07:47:56;13.75;;;7.07;;
22223;SDS011;11281;52.194;21.006;2023-03-23T07:52:19;10.27;;;6.97;;
22223;SDS011;11281;52.194;21.006;2023-03-23T07:56:41;12.55;;;6.72;;
22223;SDS011;11281;52.194;21.006;2023-03-23T08:01:04;11.15;;;5.95;;
22223;SDS011;11281;52.194;21.006;2023-03-23T08:05:26;12.57;;;6.32;;
22223;SDS011;11281;52.194;21.006;2023-03-23T08:09:48;9.18;;;5.90;;
22223;SDS011;11281;52.194;21.006;2023-03-23T08:14:10;9.15;;;6.15;;
22223;SDS011;11281;52.194;21.006;2023-03-23T08:18:32;8.50;;;5.10;;
22223;SDS011;11281;52.194;21.006;2023-03-23T08:22:55;8.40;;;4.57;;
22223;SDS011;11281;52.194;21.006;2023-03-23T08:27:17;6.75;;;4.93;;
22223;SDS011;11281;52.194;21.006;2023-03-23T08:31:39;8.23;;;4.80;;
22223;SDS011;11281;52.194;21.006;2023-03-23T08:36:01;8.30;;;4.60;;
22223;SDS011;11281;52.194;21.006;2023-03-23T08:40:24;13.38;;;7.45;;
22223;SDS011;11281;52.194;21.006;2023-03-23T08:44:47;10.05;;;5.68;;
22223;SDS011;11281;52.194;21.006;2023-03-23T08:49:09;8.65;;;5.38;;
22223;SDS011;11281;52.194;21.006;2023-03-23T08:53:30;10.57;;;4.20;;
22223;SDS011;11281;52.194;21.006;2023-03-23T08:57:52;6.95;;;4.32;;
22223;SDS011;11281;52.194;21.006;2023-03-23T09:02:14;43.20;;;22.73;;
22223;SDS011;11281;52.194;21.006;2023-03-23T09:06:37;8.63;;;5.30;;
22223;SDS011;11281;52.194;21.006;2023-03-23T09:10:59;6.55;;;4.15;;
22223;SDS011;11281;52.194;21.006;2023-03-23T09:15:22;5.97;;;4.53;;
22223;SDS011;11281;52.194;21.006;2023-03-23T09:19:44;25.10;;;6.40;;
22223;SDS011;11281;52.194;21.006;2023-03-23T09:24:05;7.43;;;4.55;;
22223;SDS011;11281;52.194;21.006;2023-03-23T09:28:27;8.90;;;5.68;;
22223;SDS011;11281;52.194;21.006;2023-03-23T09:32:49;9.10;;;5.25;;
22223;SDS011;11281;52.194;21.006;2023-03-23T09:37:11;13.05;;;5.40;;
22223;SDS011;11281;52.194;21.006;2023-03-23T09:51:12;11.18;;;6.57;;
22223;SDS011;11281;52.194;21.006;2023-03-23T09:56:01;5.70;;;4.18;;
22223;SDS011;11281;52.194;21.006;2023-03-23T10:00:34;5.70;;;4.22;;
22223;SDS011;11281;52.194;21.006;2023-03-23T10:09:59;10.13;;;4.28;;
22223;SDS011;11281;52.194;21.006;2023-03-23T10:14:28;6.97;;;3.40;;
22223;SDS011;11281;52.194;21.006;2023-03-23T10:24:00;5.32;;;2.53;;
22223;SDS011;11281;52.194;21.006;2023-03-23T10:28:35;6.30;;;3.65;;
22223;SDS011;11281;52.194;21.006;2023-03-23T10:33:12;4.07;;;2.60;;
22223;SDS011;11281;52.194;21.006;2023-03-23T10:38:06;5.00;;;2.90;;
22223;SDS011;11281;52.194;21.006;2023-03-23T10:42:37;5.72;;;2.53;;
22223;SDS011;11281;52.194;21.006;2023-03-23T10:47:04;4.55;;;3.05;;
22223;SDS011;11281;52.194;21.006;2023-03-23T10:51:33;4.38;;;2.85;;
22223;SDS011;11281;52.194;21.006;2023-03-23T10:55:59;2.70;;;2.35;;
22223;SDS011;11281;52.194;21.006;2023-03-23T11:00:25;3.20;;;1.83;;
22223;SDS011;11281;52.194;21.006;2023-03-23T11:04:56;3.30;;;1.85;;
22223;SDS011;11281;52.194;21.006;2023-03-23T11:09:32;5.90;;;1.95;;
22223;SDS011;11281;52.194;21.006;2023-03-23T11:14:12;4.03;;;3.05;;
22223;SDS011;11281;52.194;21.006;2023-03-23T11:18:52;5.78;;;4.88;;
22223;SDS011;11281;52.194;21.006;2023-03-23T11:23:17;3.75;;;3.13;;
22223;SDS011;11281;52.194;21.006;2023-03-23T11:28:14;2.85;;;1.90;;
22223;SDS011;11281;52.194;21.006;2023-03-23T11:32:35;4.00;;;3.35;;
22223;SDS011;11281;52.194;21.006;2023-03-23T11:37:02;8.85;;;6.15;;
22223;SDS011;11281;52.194;21.006;2023-03-23T11:42:18;3.40;;;2.78;;
22223;SDS011;11281;52.194;21.006;2023-03-23T11:51:29;2.30;;;1.98;;
22223;SDS011;11281;52.194;21.006;2023-03-23T11:56:01;5.63;;;2.75;;
22223;SDS011;11281;52.194;21.006;2023-03-23T12:00:54;5.70;;;2.67;;
22223;SDS011;11281;52.194;21.006;2023-03-23T12:10:33;5.22;;;2.38;;
22223;SDS011;11281;52.194;21.006;2023-03-23T12:15:21;5.68;;;1.95;;
22223;SDS011;11281;52.194;21.006;2023-03-23T12:34:41;5.30;;;2.70;;
22223;SDS011;11281;52.194;21.006;2023-03-23T12:39:29;4.70;;;2.53;;
22223;SDS011;11281;52.194;21.006;2023-03-23T12:44:21;3.35;;;2.13;;
22223;SDS011;11281;52.194;21.006;2023-03-23T12:53:33;3.83;;;2.25;;
22223;SDS011;11281;52.194;21.006;2023-03-23T12:58:05;3.03;;;2.05;;
22223;SDS011;11281;52.194;21.006;2023-03-23T13:02:37;5.00;;;2.10;;
22223;SDS011;11281;52.194;21.006;2023-03-23T13:07:22;5.68;;;3.13;;
22223;SDS011;11281;52.194;21.006;2023-03-23T13:11:51;2.53;;;2.30;;
22223;SDS011;11281;52.194;21.006;2023-03-23T13:16:21;3.35;;;2.28;;
22223;SDS011;11281;52.194;21.006;2023-03-23T13:21:05;3.15;;;1.77;;
22223;SDS011;11281;52.194;21.006;2023-03-23T13:30:17;4.22;;;2.00;;
22223;SDS011;11281;52.194;21.006;2023-03-23T13:34:46;7.35;;;3.85;;
22223;SDS011;11281;52.194;21.006;2023-03-23T13:39:19;4.80;;;2.83;;
22223;SDS011;11281;52.194;21.006;2023-03-23T13:43:51;12.27;;;4.25;;
22223;SDS011;11281;52.194;21.006;2023-03-23T13:52:39;4.40;;;2.17;;
22223;SDS011;11281;52.194;21.006;2023-03-23T13:57:32;5.90;;;3.70;;
22223;SDS011;11281;52.194;21.006;2023-03-23T14:07:08;6.00;;;3.45;;
22223;SDS011;11281;52.194;21.006;2023-03-23T14:11:32;9.38;;;4.32;;
22223;SDS011;11281;52.194;21.006;2023-03-23T14:15:59;3.85;;;2.40;;
22223;SDS011;11281;52.194;21.006;2023-03-23T14:20:29;4.20;;;2.55;;
22223;SDS011;11281;52.194;21.006;2023-03-23T14:25:01;29.30;;;6.80;;
22223;SDS011;11281;52.194;21.006;2023-03-23T14:29:37;9.35;;;3.10;;
22223;SDS011;11281;52.194;21.006;2023-03-23T14:34:01;4.70;;;2.88;;
22223;SDS011;11281;52.194;21.006;2023-03-23T14:38:27;9.35;;;4.05;;
22223;SDS011;11281;52.194;21.006;2023-03-23T14:42:52;5.90;;;3.58;;
22223;SDS011;11281;52.194;21.006;2023-03-23T14:47:18;8.13;;;3.47;;
22223;SDS011;11281;52.194;21.006;2023-03-23T14:51:51;8.48;;;4.38;;
22223;SDS011;11281;52.194;21.006;2023-03-23T14:56:16;7.88;;;4.63;;
22223;SDS011;11281;52.194;21.006;2023-03-23T15:00:45;4.75;;;3.78;;
22223;SDS011;11281;52.194;21.006;2023-03-23T15:05:28;17.30;;;9.25;;
22223;SDS011;11281;52.194;21.006;2023-03-23T15:09:53;14.70;;;7.82;;
22223;SDS011;11281;52.194;21.006;2023-03-23T15:14:16;19.85;;;9.05;;
22223;SDS011;11281;52.194;21.006;2023-03-23T15:18:44;17.08;;;8.15;;
22223;SDS011;11281;52.194;21.006;2023-03-23T15:23:15;4.97;;;3.55;;
22223;SDS011;11281;52.194;21.006;2023-03-23T15:27:44;10.13;;;5.43;;
22223;SDS011;11281;52.194;21.006;2023-03-23T15:32:11;7.07;;;4.28;;
22223;SDS011;11281;52.194;21.006;2023-03-23T15:36:34;8.68;;;5.65;;
22223;SDS011;11281;52.194;21.006;2023-03-23T15:40:57;7.13;;;3.97;;
22223;SDS011;11281;52.194;21.006;2023-03-23T15:45:27;4.57;;;3.15;;
22223;SDS011;11281;52.194;21.006;2023-03-23T15:49:58;5.43;;;2.92;;
22223;SDS011;11281;52.194;21.006;2023-03-23T15:54:31;6.65;;;3.65;;
22223;SDS011;11281;52.194;21.006;2023-03-23T15:58:53;5.82;;;3.30;;
22223;SDS011;11281;52.194;21.006;2023-03-23T16:03:17;8.02;;;4.85;;
22223;SDS011;11281;52.194;21.006;2023-03-23T16:07:57;5.63;;;4.30;;
22223;SDS011;11281;52.194;21.006;2023-03-23T16:12:19;9.02;;;6.03;;
22223;SDS011;11281;52.194;21.006;2023-03-23T16:16:43;7.25;;;4.45;;
22223;SDS011;11281;52.194;21.006;2023-03-23T16:21:07;4.53;;;3.17;;
22223;SDS011;11281;52.194;21.006;2023-03-23T16:25:29;5.63;;;4.10;;
22223;SDS011;11281;52.194;21.006;2023-03-23T16:29:51;9.57;;;5.32;;
22223;SDS011;11281;52.194;21.006;2023-03-23T16:34:12;7.60;;;3.65;;
22223;SDS011;11281;52.194;21.006;2023-03-23T16:38:35;7.47;;;4.00;;
22223;SDS011;11281;52.194;21.006;2023-03-23T16:42:56;6.80;;;4.50;;
22223;SDS011;11281;52.194;21.006;2023-03-23T16:47:18;6.82;;;3.92;;
22223;SDS011;11281;52.194;21.006;2023-03-23T16:51:45;11.93;;;5.40;;
22223;SDS011;11281;52.194;21.006;2023-03-23T16:56:08;11.90;;;4.68;;
22223;SDS011;11281;52.194;21.006;2023-03-23T17:00:29;11.27;;;6.07;;
22223;SDS011;11281;52.194;21.006;2023-03-23T17:04:52;9.43;;;6.03;;
22223;SDS011;11281;52.194;21.006;2023-03-23T17:09:14;5.13;;;3.92;;
22223;SDS011;11281;52.194;21.006;2023-03-23T17:13:35;8.68;;;6.25;;
22223;SDS011;11281;52.194;21.006;2023-03-23T17:17:57;15.10;;;6.95;;
22223;SDS011;11281;52.194;21.006;2023-03-23T17:22:19;9.43;;;6.63;;
22223;SDS011;11281;52.194;21.006;2023-03-23T17:26:41;14.63;;;8.10;;
22223;SDS011;11281;52.194;21.006;2023-03-23T17:31:02;10.38;;;6.68;;
22223;SDS011;11281;52.194;21.006;2023-03-23T17:35:26;9.88;;;5.60;;
22223;SDS011;11281;52.194;21.006;2023-03-23T17:39:47;10.90;;;6.38;;
22223;SDS011;11281;52.194;21.006;2023-03-23T17:44:09;14.20;;;7.25;;
22223;SDS011;11281;52.194;21.006;2023-03-23T17:48:31;11.73;;;6.70;;
22223;SDS011;11281;52.194;21.006;2023-03-23T17:52:53;11.60;;;7.22;;
22223;SDS011;11281;52.194;21.006;2023-03-23T17:57:16;9.35;;;5.88;;
22223;SDS011;11281;52.194;21.006;2023-03-23T18:01:38;7.32;;;4.90;;
22223;SDS011;11281;52.194;21.006;2023-03-23T18:06:01;8.20;;;4.63;;
22223;SDS011;11281;52.194;21.006;2023-03-23T18:10:25;6.55;;;4.00;;
22223;SDS011;11281;52.194;21.006;2023-03-23T18:14:47;9.23;;;4.70;;
22223;SDS011;11281;52.194;21.006;2023-03-23T18:19:09;10.27;;;4.90;;
22223;SDS011;11281;52.194;21.006;2023-03-23T18:23:31;8.75;;;5.35;;
22223;SDS011;11281;52.194;21.006;2023-03-23T18:27:55;9.50;;;5.00;;
22223;SDS011;11281;52.194;21.006;2023-03-23T18:32:17;8.20;;;4.85;;
22223;SDS011;11281;52.194;21.006;2023-03-23T18:36:39;10.93;;;6.20;;
22223;SDS011;11281;52.194;21.006;2023-03-23T18:41:04;10.88;;;5.78;;
22223;SDS011;11281;52.194;21.006;2023-03-23T18:45:30;8.88;;;6.18;;
22223;SDS011;11281;52.194;21.006;2023-03-23T18:49:53;13.25;;;5.28;;
22223;SDS011;11281;52.194;21.006;2023-03-23T18:54:15;8.90;;;5.28;;
22223;SDS011;11281;52.194;21.006;2023-03-23T18:58:37;9.52;;;5.57;;
22223;SDS011;11281;52.194;21.006;2023-03-23T19:02:59;12.90;;;6.05;;
22223;SDS011;11281;52.194;21.006;2023-03-23T19:07:21;13.98;;;6.93;;
22223;SDS011;11281;52.194;21.006;2023-03-23T19:11:44;8.05;;;5.43;;
22223;SDS011;11281;52.194;21.006;2023-03-23T19:16:07;10.90;;;6.90;;
22223;SDS011;11281;52.194;21.006;2023-03-23T19:20:28;13.65;;;7.97;;
22223;SDS011;11281;52.194;21.006;2023-03-23T19:24:50;15.85;;;7.93;;
22223;SDS011;11281;52.194;21.006;2023-03-23T19:29:14;15.50;;;8.73;;
22223;SDS011;11281;52.194;21.006;2023-03-23T19:33:38;13.15;;;7.40;;
22223;SDS011;11281;52.194;21.006;2023-03-23T19:38:00;14.90;;;8.60;;
22223;SDS011;11281;52.194;21.006;2023-03-23T19:42:22;15.93;;;7.00;;
22223;SDS011;11281;52.194;21.006;2023-03-23T19:46:43;12.38;;;7.20;;
22223;SDS011;11281;52.194;21.006;2023-03-23T19:51:06;12.38;;;7.45;;
22223;SDS011;11281;52.194;21.006;2023-03-23T19:55:29;14.13;;;6.75;;
22223;SDS011;11281;52.194;21.006;2023-03-23T19:59:50;11.85;;;5.55;;
22223;SDS011;11281;52.194;21.006;2023-03-23T20:04:12;8.73;;;6.18;;
22223;SDS011;11281;52.194;21.006;2023-03-23T20:08:34;10.38;;;7.15;;
22223;SDS011;11281;52.194;21.006;2023-03-23T20:12:56;10.05;;;6.38;;
22223;SDS011;11281;52.194;21.006;2023-03-23T20:17:17;11.85;;;6.53;;
22223;SDS011;11281;52.194;21.006;2023-03-23T20:21:39;11.23;;;5.72;;
22223;SDS011;11281;52.194;21.006;2023-03-23T20:26:03;9.70;;;5.93;;
22223;SDS011;11281;52.194;21.006;2023-03-23T20:30:31;11.32;;;5.60;;
22223;SDS011;11281;52.194;21.006;2023-03-23T20:34:53;11.73;;;5.95;;
22223;SDS011;11281;52.194;21.006;2023-03-23T20:39:17;13.52;;;5.78;;
22223;SDS011;11281;52.194;21.006;2023-03-23T20:43:41;10.98;;;5.78;;
22223;SDS011;11281;52.194;21.006;2023-03-23T20:48:04;8.63;;;5.00;;
22223;SDS011;11281;52.194;21.006;2023-03-23T20:52:26;7.50;;;4.82;;
22223;SDS011;11281;52.194;21.006;2023-03-23T20:56:48;7.82;;;4.60;;
22223;SDS011;11281;52.194;21.006;2023-03-23T21:01:10;13.13;;;5.25;;
22223;SDS011;11281;52.194;21.006;2023-03-23T21:05:32;9.05;;;4.43;;
22223;SDS011;11281;52.194;21.006;2023-03-23T21:09:54;6.38;;;4.43;;
22223;SDS011;11281;52.194;21.006;2023-03-23T21:14:16;8.23;;;3.83;;
22223;SDS011;11281;52.194;21.006;2023-03-23T21:18:37;10.30;;;4.65;;
22223;SDS011;11281;52.194;21.006;2023-03-23T21:22:59;7.22;;;4.07;;
22223;SDS011;11281;52.194;21.006;2023-03-23T21:27:21;6.45;;;3.70;;
22223;SDS011;11281;52.194;21.006;2023-03-23T21:31:43;7.47;;;4.15;;
22223;SDS011;11281;52.194;21.006;2023-03-23T21:36:05;6.57;;;4.10;;
22223;SDS011;11281;52.194;21.006;2023-03-23T21:40:11;7.00;;;3.97;;
22223;SDS011;11281;52.194;21.006;2023-03-23T21:44:16;7.85;;;3.90;;
22223;SDS011;11281;52.194;21.006;2023-03-23T21:48:18;6.50;;;3.70;;
22223;SDS011;11281;52.194;21.006;2023-03-23T21:52:22;5.28;;;3.45;;
22223;SDS011;11281;52.194;21.006;2023-03-23T21:56:26;6.13;;;3.83;;
22223;SDS011;11281;52.194;21.006;2023-03-23T22:00:28;6.22;;;3.45;;
22223;SDS011;11281;52.194;21.006;2023-03-23T22:04:31;5.70;;;3.15;;
22223;SDS011;11281;52.194;21.006;2023-03-23T22:08:32;5.57;;;3.03;;
22223;SDS011;11281;52.194;21.006;2023-03-23T22:12:34;6.10;;;2.95;;
22223;SDS011;11281;52.194;21.006;2023-03-23T22:16:37;8.65;;;3.60;;
22223;SDS011;11281;52.194;21.006;2023-03-23T22:20:39;5.18;;;2.97;;
22223;SDS011;11281;52.194;21.006;2023-03-23T22:24:40;4.80;;;2.83;;
22223;SDS011;11281;52.194;21.006;2023-03-23T22:28:42;5.18;;;2.97;;
22223;SDS011;11281;52.194;21.006;2023-03-23T22:32:46;4.72;;;3.38;;
22223;SDS011;11281;52.194;21.006;2023-03-23T22:36:47;4.03;;;2.92;;
22223;SDS011;11281;52.194;21.006;2023-03-23T22:40:53;6.00;;;2.83;;
22223;SDS011;11281;52.194;21.006;2023-03-23T22:44:59;4.20;;;2.90;;
22223;SDS011;11281;52.194;21.006;2023-03-23T22:49:01;7.63;;;3.28;;
22223;SDS011;11281;52.194;21.006;2023-03-23T22:53:03;6.07;;;3.40;;
22223;SDS011;11281;52.194;21.006;2023-03-23T22:57:04;5.65;;;3.00;;
22223;SDS011;11281;52.194;21.006;2023-03-23T23:01:07;4.90;;;2.97;;
22223;SDS011;11281;52.194;21.006;2023-03-23T23:05:13;5.38;;;3.67;;
22223;SDS011;11281;52.194;21.006;2023-03-23T23:09:15;6.30;;;3.85;;
22223;SDS011;11281;52.194;21.006;2023-03-23T23:13:17;7.50;;;4.05;;
22223;SDS011;11281;52.194;21.006;2023-03-23T23:17:19;5.88;;;3.55;;
22223;SDS011;11281;52.194;21.006;2023-03-23T23:21:22;5.38;;;3.78;;
22223;SDS011;11281;52.194;21.006;2023-03-23T23:25:27;5.03;;;3.35;;
22223;SDS011;11281;52.194;21.006;2023-03-23T23:29:31;4.38;;;3.42;;
22223;SDS011;11281;52.194;21.006;2023-03-23T23:33:32;5.68;;;3.58;;
22223;SDS011;11281;52.194;21.006;2023-03-23T23:37:35;5.13;;;3.53;;
22223;SDS011;11281;52.194;21.006;2023-03-23T23:41:37;7.20;;;3.75;;
22223;SDS011;11281;52.194;21.006;2023-03-23T23:45:39;6.15;;;3.35;;
22223;SDS011;11281;52.194;21.006;2023-03-23T23:49:40;6.57;;;3.83;;
22223;SDS011;11281;52.194;21.006;2023-03-23T23:53:43;7.30;;;4.55;;
22223;SDS011;11281;52.194;21.006;2023-03-23T23:57:47;5.85;;;3.50;;
